createdAt,value
2018-07-13T00:01:43.978Z,16.00
2018-07-13T00:04:17.892Z,16.10
2018-07-13T00:06:51.705Z,16.22
2018-07-13T00:09:25.687Z,16.26
2018-07-13T00:11:59.690Z,15.91
2018-07-13T00:14:33.640Z,15.66
2018-07-13T00:17:07.668Z,15.37
2018-07-13T00:19:41.712Z,15.26
2018-07-13T00:22:15.763Z,15.49
2018-07-13T00:24:49.797Z,15.49
2018-07-13T00:27:23.707Z,15.42
2018-07-13T00:29:57.762Z,15.62
2018-07-13T00:32:31.626Z,15.84
2018-07-13T00:35:05.694Z,15.91
2018-07-13T00:37:39.604Z,15.99
2018-07-13T00:40:13.663Z,15.63
2018-07-13T00:42:47.551Z,15.14
2018-07-13T00:45:21.477Z,14.61
2018-07-13T00:47:55.444Z,14.53
2018-07-13T00:50:29.461Z,14.38
2018-07-13T00:53:03.403Z,14.30
2018-07-13T00:55:37.390Z,14.28
2018-07-13T00:58:11.441Z,14.37
2018-07-13T01:00:45.410Z,14.64
2018-07-13T01:03:19.318Z,14.70
2018-07-13T01:05:53.349Z,14.66
2018-07-13T01:08:27.193Z,14.74
2018-07-13T01:11:01.461Z,14.66
2018-07-13T01:13:35.533Z,14.71
2018-07-13T01:16:09.847Z,14.50
2018-07-13T01:18:43.831Z,14.36
2018-07-13T01:21:18.013Z,14.45
2018-07-13T01:23:51.856Z,14.56
2018-07-13T01:26:25.986Z,14.71
2018-07-13T01:28:59.913Z,14.73
2018-07-13T01:31:33.871Z,14.66
2018-07-13T01:34:07.662Z,14.43
2018-07-13T01:36:41.730Z,14.49
2018-07-13T01:39:15.660Z,14.52
2018-07-13T01:41:54.928Z,14.59
2018-07-13T01:44:28.970Z,14.38
2018-07-13T01:47:02.913Z,14.16
2018-07-13T01:49:36.937Z,14.22
2018-07-13T01:52:10.881Z,14.11
2018-07-13T01:54:44.818Z,14.19
2018-07-13T01:57:18.790Z,14.38
2018-07-13T01:59:52.820Z,14.44
2018-07-13T02:02:26.873Z,14.33
2018-07-13T02:05:00.793Z,14.34
2018-07-13T02:07:35.161Z,14.29
2018-07-13T02:10:09.231Z,14.26
2018-07-13T02:12:43.167Z,14.25
2018-07-13T02:15:17.090Z,14.41
2018-07-13T02:17:51.248Z,14.41
2018-07-13T02:20:25.177Z,14.63
2018-07-13T02:22:59.290Z,14.80
2018-07-13T02:25:33.262Z,14.74
2018-07-13T02:28:07.314Z,14.85
2018-07-13T02:30:41.211Z,14.80
2018-07-13T02:33:15.219Z,14.85
2018-07-13T02:35:49.170Z,14.88
2018-07-13T02:38:23.247Z,14.91
2018-07-13T02:40:57.173Z,14.84
2018-07-13T02:43:32.294Z,14.57
2018-07-13T02:46:06.159Z,14.09
2018-07-13T02:48:40.109Z,13.65
2018-07-13T02:51:14.140Z,13.65
2018-07-13T02:53:48.080Z,13.70
2018-07-13T02:56:22.020Z,13.57
2018-07-13T02:58:55.992Z,13.20
2018-07-13T03:01:30.017Z,13.09
2018-07-13T03:04:04.148Z,13.07
2018-07-13T03:06:37.978Z,13.10
2018-07-13T03:09:12.905Z,13.12
2018-07-13T03:11:46.932Z,13.33
2018-07-13T03:14:21.042Z,13.42
2018-07-13T03:16:55.590Z,13.61
2018-07-13T03:19:29.699Z,13.81
2018-07-13T03:22:03.686Z,13.93
2018-07-13T03:24:38.543Z,13.77
2018-07-13T03:27:12.614Z,13.73
2018-07-13T03:29:46.786Z,13.71
2018-07-13T03:32:20.751Z,13.87
2018-07-13T03:34:54.927Z,13.96
2018-07-13T03:37:28.901Z,13.89
2018-07-13T03:40:03.021Z,13.92
2018-07-13T03:42:36.879Z,14.18
2018-07-13T03:45:10.855Z,14.48
2018-07-13T03:47:44.725Z,14.62
2018-07-13T03:50:18.818Z,14.90
2018-07-13T03:52:52.878Z,15.03
2018-07-13T03:55:26.918Z,15.16
2018-07-13T03:58:00.855Z,15.26
2018-07-13T04:00:34.974Z,15.01
2018-07-13T04:03:08.950Z,15.18
2018-07-13T04:05:42.974Z,15.37
2018-07-13T04:08:17.084Z,15.60
2018-07-13T04:10:51.200Z,15.51
2018-07-13T04:13:25.278Z,15.13
2018-07-13T04:15:59.277Z,15.09
2018-07-13T04:18:33.165Z,14.88
2018-07-13T04:21:07.185Z,14.67
2018-07-13T04:23:41.353Z,14.53
2018-07-13T04:26:15.621Z,14.58
2018-07-13T04:28:50.510Z,14.81
2018-07-13T04:31:24.535Z,14.97
2018-07-13T04:33:58.520Z,15.16
2018-07-13T04:36:32.496Z,15.25
2018-07-13T04:39:13.486Z,15.60
2018-07-13T04:41:47.625Z,15.62
2018-07-13T04:44:21.632Z,15.87
2018-07-13T04:46:55.764Z,15.96
2018-07-13T04:49:29.797Z,15.87
2018-07-13T04:59:04.672Z,16.54
2018-07-13T05:01:38.853Z,17.04
2018-07-13T05:04:13.056Z,17.33
2018-07-13T05:06:47.501Z,17.64
2018-07-13T05:09:21.689Z,17.95
2018-07-13T05:11:55.732Z,18.18
2018-07-13T05:14:24.213Z,18.42
2018-07-13T05:16:52.597Z,18.74
2018-07-13T05:19:20.579Z,18.95
2018-07-13T05:21:48.775Z,19.13
2018-07-13T05:24:16.797Z,19.38
2018-07-13T05:33:43.936Z,19.62
2018-07-13T05:36:11.983Z,19.90
2018-07-13T05:38:40.055Z,19.85
2018-07-13T05:41:08.135Z,20.03
2018-07-13T05:43:36.194Z,20.36
2018-07-13T05:46:04.265Z,20.50
2018-07-13T05:48:32.471Z,20.33
2018-07-13T05:51:00.510Z,20.25
2018-07-13T05:53:28.560Z,20.66
2018-07-13T05:55:56.641Z,20.87
2018-07-13T05:58:24.702Z,20.44
2018-07-13T06:00:52.957Z,20.44
2018-07-13T06:03:21.128Z,20.85
2018-07-13T06:05:49.401Z,21.38
2018-07-13T06:08:17.425Z,21.65
2018-07-13T06:10:45.523Z,21.47
2018-07-13T06:13:13.584Z,21.73
2018-07-13T06:15:41.528Z,21.28
2018-07-13T06:18:09.650Z,21.15
2018-07-13T06:20:37.572Z,21.51
2018-07-13T06:23:05.462Z,21.97
2018-07-13T06:25:33.408Z,22.17
2018-07-13T06:28:01.429Z,22.04
2018-07-13T06:30:29.348Z,22.37
2018-07-13T06:32:57.369Z,22.68
2018-07-13T06:35:25.860Z,22.61
2018-07-13T06:37:53.869Z,22.59
2018-07-13T06:40:21.844Z,22.53
2018-07-13T06:42:49.716Z,22.41
2018-07-13T06:45:17.736Z,22.69
2018-07-13T06:47:45.725Z,22.57
2018-07-13T06:50:13.712Z,22.43
2018-07-13T06:52:42.177Z,22.81
2018-07-13T06:55:10.117Z,23.15
2018-07-13T06:57:49.103Z,23.08
2018-07-13T07:01:19.785Z,23.30
2018-07-13T07:04:53.854Z,23.27
2018-07-13T07:07:25.449Z,23.46
2018-07-13T07:09:55.627Z,23.48
2018-07-13T07:12:37.130Z,23.59
2018-07-13T07:15:05.254Z,24.27
2018-07-13T07:17:33.141Z,24.43
2018-07-13T07:20:01.117Z,24.97
2018-07-13T07:22:29.174Z,24.99
2018-07-13T07:24:57.125Z,24.77
2018-07-13T07:27:26.834Z,24.68
2018-07-13T07:30:01.023Z,24.38
2018-07-13T07:32:36.058Z,24.52
2018-07-13T07:35:10.536Z,24.42
2018-07-13T07:37:44.537Z,24.59
2018-07-13T07:40:18.662Z,24.81
2018-07-13T07:42:53.140Z,25.71
2018-07-13T07:45:21.111Z,25.45
2018-07-13T07:47:55.684Z,25.31
2018-07-13T07:50:23.561Z,25.11
2018-07-13T07:52:51.426Z,25.43
2018-07-13T07:55:19.342Z,25.56
2018-07-13T07:57:47.219Z,25.25
2018-07-13T08:00:15.139Z,25.64
2018-07-13T08:02:43.076Z,25.87
2018-07-13T08:05:10.961Z,26.24
2018-07-13T08:07:39.098Z,26.35
2018-07-13T08:10:07.294Z,26.76
2018-07-13T08:12:35.210Z,26.84
2018-07-13T08:15:03.205Z,26.83
2018-07-13T08:17:31.207Z,27.04
2018-07-13T08:19:59.158Z,26.88
2018-07-13T08:22:34.558Z,27.12
2018-07-13T08:25:04.952Z,26.91
2018-07-13T08:27:36.916Z,26.95
2018-07-13T08:30:06.283Z,27.52
2018-07-13T08:32:34.176Z,27.30
2018-07-13T08:35:02.155Z,27.42
2018-07-13T08:37:30.241Z,27.29
2018-07-13T08:39:58.194Z,27.12
2018-07-13T08:42:27.224Z,27.81
2018-07-13T08:44:55.476Z,28.00
2018-07-13T08:47:24.209Z,27.86
2018-07-13T08:49:52.350Z,27.92
2018-07-13T08:52:20.454Z,28.10
2018-07-13T08:54:49.464Z,28.71
2018-07-13T08:57:17.687Z,28.38
2018-07-13T08:59:45.969Z,28.60
2018-07-13T09:02:13.930Z,28.67
2018-07-13T09:04:42.019Z,27.99
2018-07-13T09:07:10.381Z,28.37
2018-07-13T09:09:39.173Z,28.14
2018-07-13T09:12:07.330Z,28.07
2018-07-13T09:14:35.504Z,28.10
2018-07-13T09:17:03.493Z,28.22
2018-07-13T09:19:31.508Z,28.63
2018-07-13T09:21:59.438Z,29.03
2018-07-13T09:24:27.502Z,28.80
2018-07-13T09:26:57.013Z,28.86
2018-07-13T09:29:24.921Z,29.07
2018-07-13T09:31:52.928Z,29.27
2018-07-13T09:34:21.856Z,29.18
2018-07-13T09:36:49.820Z,29.49
2018-07-13T09:39:19.053Z,28.95
2018-07-13T09:41:47.265Z,29.22
2018-07-13T09:44:20.607Z,29.20
2018-07-13T09:46:48.788Z,29.19
2018-07-13T09:49:16.647Z,29.19
2018-07-13T09:51:44.615Z,29.36
2018-07-13T09:54:12.641Z,29.35
2018-07-13T09:56:40.681Z,28.89
2018-07-13T09:59:08.659Z,29.13
2018-07-13T10:01:36.745Z,29.32
2018-07-13T10:04:04.818Z,29.51
2018-07-13T10:06:32.853Z,29.02
2018-07-13T10:09:01.764Z,29.36
2018-07-13T10:11:29.851Z,29.47
2018-07-13T10:13:58.270Z,29.69
2018-07-13T10:16:26.337Z,29.25
2018-07-13T10:18:57.189Z,29.39
2018-07-13T10:21:25.311Z,29.48
2018-07-13T10:23:53.508Z,29.62
2018-07-13T10:26:31.985Z,29.49
2018-07-13T10:29:00.252Z,29.92
2018-07-13T10:31:28.402Z,29.74
2018-07-13T10:33:56.590Z,29.55
2018-07-13T10:36:24.854Z,28.99
2018-07-13T10:38:56.006Z,29.29
2018-07-13T10:41:23.981Z,29.69
2018-07-13T10:43:51.983Z,29.85
2018-07-13T10:47:44.379Z,29.77
2018-07-13T10:50:13.388Z,29.23
2018-07-13T10:52:41.295Z,29.23
2018-07-13T10:55:09.290Z,29.28
2018-07-13T10:57:37.231Z,28.95
2018-07-13T11:00:05.210Z,29.11
2018-07-13T11:02:33.102Z,29.31
2018-07-13T11:05:01.049Z,29.89
2018-07-13T11:07:29.123Z,29.96
2018-07-13T11:09:57.015Z,29.63
2018-07-13T11:12:24.997Z,29.33
2018-07-13T11:14:52.935Z,29.91
2018-07-13T11:17:20.848Z,30.16
2018-07-13T11:21:13.197Z,30.27
2018-07-13T11:23:41.147Z,30.37
2018-07-13T11:26:09.103Z,30.41
2018-07-13T11:28:37.111Z,30.38
2018-07-13T11:31:05.011Z,30.61
2018-07-13T11:33:33.014Z,30.22
2018-07-13T11:36:01.021Z,29.72
2018-07-13T11:38:30.738Z,28.92
2018-07-13T11:40:59.159Z,29.03
2018-07-13T11:43:27.065Z,29.53
2018-07-13T11:45:54.997Z,30.34
2018-07-13T11:48:22.858Z,30.85
2018-07-13T11:50:51.161Z,31.51
2018-07-13T11:53:19.197Z,31.03
2018-07-13T11:55:47.120Z,30.75
2018-07-13T11:58:15.046Z,30.69
2018-07-13T12:00:42.985Z,30.73
2018-07-13T12:03:10.864Z,30.19
2018-07-13T12:05:38.765Z,29.47
2018-07-13T12:08:07.637Z,29.90
2018-07-13T12:10:35.561Z,29.88
2018-07-13T12:13:03.555Z,29.73
2018-07-13T12:15:31.503Z,29.00
2018-07-13T12:17:59.373Z,29.09
2018-07-13T12:20:27.334Z,28.88
2018-07-13T12:23:00.362Z,28.59
2018-07-13T12:25:28.615Z,28.06
2018-07-13T12:27:56.493Z,27.89
2018-07-13T12:30:24.386Z,28.01
2018-07-13T12:32:52.339Z,27.80
2018-07-13T12:35:21.881Z,28.15
2018-07-13T12:37:49.934Z,27.82
2018-07-13T12:40:17.857Z,27.74
2018-07-13T12:42:48.987Z,27.83
2018-07-13T12:45:16.893Z,28.13
2018-07-13T12:47:44.830Z,28.00
2018-07-13T12:50:12.760Z,28.20
2018-07-13T12:52:40.631Z,27.56
2018-07-13T12:55:08.779Z,27.63
2018-07-13T12:57:36.670Z,27.51
2018-07-13T13:00:04.609Z,27.39
2018-07-13T13:02:32.553Z,28.12
2018-07-13T13:05:00.436Z,28.11
2018-07-13T13:07:28.363Z,28.64
2018-07-13T13:09:56.277Z,28.12
2018-07-13T13:12:24.150Z,28.60
2018-07-13T13:14:52.033Z,29.20
2018-07-13T13:17:20.006Z,29.18
2018-07-13T13:19:47.886Z,28.52
2018-07-13T13:22:15.756Z,27.99
2018-07-13T13:24:43.682Z,27.77
2018-07-13T13:27:11.553Z,27.97
2018-07-13T13:29:39.456Z,27.76
2018-07-13T13:32:11.266Z,27.87
2018-07-13T13:34:39.140Z,27.55
2018-07-13T13:37:07.122Z,27.63
2018-07-13T13:39:35.469Z,27.30
2018-07-13T13:42:03.368Z,27.46
2018-07-13T13:44:31.234Z,28.30
2018-07-13T13:46:59.185Z,28.86
2018-07-13T13:49:27.058Z,29.61
2018-07-13T13:51:54.941Z,29.83
2018-07-13T13:54:22.886Z,30.21
2018-07-13T13:56:50.784Z,29.74
2018-07-13T13:59:18.878Z,30.21
2018-07-13T14:01:46.865Z,30.67
2018-07-13T14:04:14.751Z,31.33
2018-07-13T14:06:42.624Z,31.69
2018-07-13T14:09:10.562Z,31.30
2018-07-13T14:11:38.493Z,31.77
2018-07-13T14:14:06.430Z,31.37
2018-07-13T14:16:34.352Z,30.70
2018-07-13T14:19:02.249Z,30.71
2018-07-13T14:21:30.208Z,30.57
2018-07-13T14:23:58.128Z,30.86
2018-07-13T14:26:25.992Z,31.10
2018-07-13T14:28:54.198Z,31.25
2018-07-13T14:31:22.152Z,30.82
2018-07-13T14:33:50.042Z,29.38
2018-07-13T14:36:18.086Z,28.25
2018-07-13T14:38:45.997Z,28.58
2018-07-13T14:41:14.021Z,29.65
2018-07-13T14:43:42.036Z,29.13
2018-07-13T14:46:10.032Z,29.88
2018-07-13T14:48:37.976Z,30.65
2018-07-13T14:51:06.079Z,31.55
2018-07-13T14:53:34.063Z,31.19
2018-07-13T14:56:02.057Z,32.07
2018-07-13T14:58:30.058Z,32.70
2018-07-13T15:00:58.065Z,33.22
2018-07-13T15:03:26.063Z,33.93
2018-07-13T15:05:53.987Z,34.00
2018-07-13T15:08:21.962Z,32.71
2018-07-13T15:10:49.859Z,33.08
2018-07-13T15:13:17.741Z,33.68
2018-07-13T15:15:45.800Z,34.18
2018-07-13T15:18:13.727Z,33.26
2018-07-13T15:20:41.730Z,33.79
2018-07-13T15:23:09.641Z,34.03
2018-07-13T15:25:37.558Z,33.76
2018-07-13T15:28:08.987Z,34.90
2018-07-13T15:30:37.825Z,34.98
2018-07-13T15:33:05.875Z,33.85
2018-07-13T15:35:34.234Z,32.95
2018-07-13T15:38:02.179Z,33.79
2018-07-13T15:40:30.070Z,33.21
2018-07-13T15:42:58.411Z,32.89
2018-07-13T15:45:26.390Z,30.28
2018-07-13T15:47:54.261Z,28.63
2018-07-13T15:50:22.167Z,27.87
2018-07-13T15:52:50.195Z,27.77
2018-07-13T15:55:18.091Z,26.73
2018-07-13T15:57:45.967Z,26.37
2018-07-13T16:00:13.960Z,26.68
2018-07-13T16:02:41.854Z,26.51
2018-07-13T16:05:09.774Z,26.16
2018-07-13T16:07:37.685Z,25.63
2018-07-13T16:10:05.630Z,25.31
2018-07-13T16:12:33.523Z,25.30
2018-07-13T16:15:01.501Z,25.46
2018-07-13T16:17:29.413Z,25.65
2018-07-13T16:19:57.310Z,25.53
2018-07-13T16:22:25.225Z,25.49
2018-07-13T16:24:53.118Z,25.70
2018-07-13T16:27:21.005Z,25.68
2018-07-13T16:29:48.932Z,25.60
2018-07-13T16:32:16.828Z,25.36
2018-07-13T16:34:44.860Z,25.25
2018-07-13T16:37:12.888Z,25.25
2018-07-13T16:39:40.799Z,25.16
2018-07-13T16:42:08.683Z,25.28
2018-07-13T16:44:36.661Z,25.00
2018-07-13T16:47:04.566Z,25.07
2018-07-13T16:49:32.467Z,25.23
2018-07-13T16:52:00.408Z,25.15
2018-07-13T16:54:28.294Z,25.06
2018-07-13T16:56:56.145Z,24.97
2018-07-13T16:59:24.387Z,24.95
2018-07-13T17:01:52.403Z,24.82
2018-07-13T17:04:20.304Z,24.71
2018-07-13T17:06:48.229Z,24.83
2018-07-13T17:09:16.262Z,24.81
2018-07-13T17:11:44.132Z,24.93
2018-07-13T17:14:12.841Z,24.92
2018-07-13T17:16:40.724Z,24.80
2018-07-13T17:19:08.604Z,24.64
2018-07-13T17:21:36.610Z,24.36
2018-07-13T17:24:04.493Z,24.24
2018-07-13T17:26:32.378Z,24.05
2018-07-13T17:29:00.308Z,24.03
2018-07-13T17:31:28.301Z,24.07
2018-07-13T17:33:56.167Z,23.92
2018-07-13T17:36:24.118Z,23.80
2018-07-13T17:38:52.008Z,23.93
2018-07-13T17:41:19.908Z,23.83
2018-07-13T17:43:48.264Z,23.66
2018-07-13T17:46:16.218Z,23.59
2018-07-13T17:48:44.109Z,23.32
2018-07-13T17:51:12.025Z,23.09
2018-07-13T17:53:39.900Z,22.81
2018-07-13T17:56:08.041Z,22.67
2018-07-13T17:58:35.980Z,22.34
2018-07-13T18:01:03.924Z,22.23
2018-07-13T18:03:31.791Z,22.02
2018-07-13T18:05:59.783Z,21.52
2018-07-13T18:08:27.660Z,21.44
2018-07-13T18:10:55.634Z,21.58
2018-07-13T18:13:23.517Z,21.59
2018-07-13T18:15:51.430Z,21.55
2018-07-13T18:18:19.298Z,21.47
2018-07-13T18:20:47.227Z,21.42
2018-07-13T18:23:15.139Z,21.13
2018-07-13T18:25:43.040Z,20.81
2018-07-13T18:28:11.056Z,20.36
2018-07-13T18:30:38.905Z,20.32
2018-07-13T18:33:07.083Z,20.46
2018-07-13T18:35:35.030Z,20.64
2018-07-13T18:38:02.913Z,20.72
2018-07-13T18:40:30.784Z,20.77
2018-07-13T18:42:58.695Z,20.87
2018-07-13T18:45:26.562Z,20.81
2018-07-13T18:47:57.842Z,20.68
2018-07-13T18:50:25.856Z,20.51
2018-07-13T18:52:53.749Z,20.55
2018-07-13T18:55:21.802Z,20.15
2018-07-13T18:57:49.777Z,20.07
2018-07-13T19:00:17.676Z,20.21
2018-07-13T19:02:45.575Z,20.24
2018-07-13T19:05:13.508Z,20.30
2018-07-13T19:07:42.157Z,20.28
2018-07-13T19:10:10.075Z,20.05
2018-07-13T19:12:38.053Z,20.07
2018-07-13T19:15:06.050Z,20.14
2018-07-13T19:17:33.999Z,20.04
2018-07-13T19:20:02.015Z,19.98
2018-07-13T19:22:29.932Z,19.90
2018-07-13T19:24:57.889Z,19.77
2018-07-13T19:27:25.841Z,19.74
2018-07-13T19:29:53.882Z,19.66
2018-07-13T19:32:21.801Z,19.25
2018-07-13T19:34:49.820Z,19.26
2018-07-13T19:37:18.107Z,19.27
2018-07-13T19:39:46.032Z,19.31
2018-07-13T19:42:13.976Z,19.32
2018-07-13T19:44:42.172Z,19.27
2018-07-13T19:47:10.184Z,19.21
2018-07-13T19:49:38.319Z,19.27
2018-07-13T19:52:06.221Z,19.36
2018-07-13T19:54:34.148Z,19.18
2018-07-13T19:57:02.459Z,18.99
2018-07-13T19:59:36.322Z,18.92
2018-07-13T20:02:10.338Z,18.75
2018-07-13T20:04:44.274Z,18.26
2018-07-13T20:07:18.476Z,18.14
2018-07-13T20:09:52.503Z,17.64
2018-07-13T20:12:26.801Z,17.46
2018-07-13T20:15:00.722Z,17.47
2018-07-13T20:17:34.706Z,17.50
2018-07-13T20:20:09.146Z,17.44
2018-07-13T20:22:43.182Z,17.38
2018-07-13T20:25:17.313Z,17.46
2018-07-13T20:27:51.346Z,17.51
2018-07-13T20:30:25.443Z,17.58
2018-07-13T20:32:59.385Z,17.91
2018-07-13T20:35:33.196Z,18.17
2018-07-13T20:38:07.530Z,18.20
2018-07-13T20:40:41.463Z,18.28
2018-07-13T20:43:15.472Z,18.22
2018-07-13T20:45:49.515Z,17.86
2018-07-13T20:48:23.485Z,17.80
2018-07-13T20:50:57.549Z,17.55
2018-07-13T20:53:31.596Z,17.28
2018-07-13T20:56:05.591Z,17.08
2018-07-13T20:58:39.637Z,17.20
2018-07-13T21:01:13.558Z,17.32
2018-07-13T21:03:47.425Z,17.60
2018-07-13T21:06:21.393Z,17.80
2018-07-13T21:08:55.427Z,17.90
2018-07-13T21:11:29.372Z,17.98
2018-07-13T21:14:03.590Z,17.96
2018-07-13T21:16:37.609Z,17.91
2018-07-13T21:19:11.601Z,17.96
2018-07-13T21:21:45.612Z,17.96
2018-07-13T21:24:19.636Z,17.91
2018-07-13T21:26:53.688Z,17.95
2018-07-13T21:29:27.600Z,17.83
2018-07-13T21:32:03.297Z,17.84
2018-07-13T21:34:37.433Z,17.84
2018-07-13T21:37:11.421Z,17.74
2018-07-13T21:39:45.502Z,17.64
2018-07-13T21:42:19.376Z,17.68
2018-07-13T21:44:58.181Z,17.73
2018-07-13T21:47:36.835Z,17.71
2018-07-13T21:50:16.747Z,17.31
2018-07-13T21:52:52.554Z,16.75
2018-07-13T21:55:28.426Z,16.05
2018-07-13T21:58:05.978Z,15.93
2018-07-13T22:00:40.370Z,15.68
2018-07-13T22:06:11.907Z,15.56
2018-07-13T22:10:10.186Z,15.55
2018-07-13T22:12:44.174Z,15.66
2018-07-13T22:15:18.116Z,15.88
2018-07-13T22:17:52.398Z,16.14
2018-07-13T22:20:26.305Z,16.35
2018-07-13T22:23:00.293Z,16.46
2018-07-13T22:25:34.217Z,16.65
2018-07-13T22:28:08.128Z,16.75
2018-07-13T22:30:42.515Z,16.73
2018-07-13T22:33:16.746Z,16.70
2018-07-13T22:35:51.009Z,16.78
2018-07-13T22:38:24.997Z,16.88
2018-07-13T22:40:59.392Z,16.97
2018-07-13T22:43:33.386Z,16.89
2018-07-13T22:46:07.449Z,16.82
2018-07-13T22:48:41.598Z,16.27
2018-07-13T22:51:15.553Z,16.26
2018-07-13T22:53:49.633Z,16.14
2018-07-13T22:56:23.538Z,16.03
2018-07-13T22:58:57.717Z,16.04
2018-07-13T23:01:31.726Z,16.13
2018-07-13T23:04:10.921Z,16.17
2018-07-13T23:06:44.825Z,16.20
2018-07-13T23:09:18.955Z,16.11
2018-07-13T23:14:46.181Z,15.60
2018-07-13T23:17:20.268Z,15.80
2018-07-13T23:19:54.462Z,15.73
2018-07-13T23:22:28.405Z,15.76
2018-07-13T23:25:02.400Z,15.84
2018-07-13T23:27:36.411Z,15.65
2018-07-13T23:30:10.485Z,15.48
2018-07-13T23:32:44.351Z,15.23
2018-07-13T23:35:18.350Z,15.30
2018-07-13T23:37:52.840Z,15.15
2018-07-13T23:40:26.945Z,14.81
2018-07-13T23:43:00.847Z,14.80
2018-07-13T23:45:34.845Z,14.78
2018-07-13T23:48:08.790Z,14.77
2018-07-13T23:50:43.238Z,14.71
2018-07-13T23:53:17.174Z,14.41
2018-07-13T23:55:51.265Z,14.49
2018-07-13T23:58:25.308Z,14.57
